sensor_id;sensor_type;location;lat;lon;timestamp;P1;durP1;ratioP1;P2;durP2;ratioP2
76377;SDS011;65200;49.500;8.654;2023-05-10T00:02:24;2.35;;;2.15;;
76377;SDS011;65200;49.500;8.654;2023-05-10T00:04:51;1.30;;;1.17;;
76377;SDS011;65200;49.500;8.654;2023-05-10T00:07:18;2.72;;;1.83;;
76377;SDS011;65200;49.500;8.654;2023-05-10T00:09:46;1.42;;;1.30;;
76377;SDS011;65200;49.500;8.654;2023-05-10T00:12:12;1.83;;;1.42;;
76377;SDS011;65200;49.500;8.654;2023-05-10T00:14:39;1.65;;;1.42;;
76377;SDS011;65200;49.500;8.654;2023-05-10T00:17:05;1.98;;;1.77;;
76377;SDS011;65200;49.500;8.654;2023-05-10T00:19:32;3.33;;;1.67;;
76377;SDS011;65200;49.500;8.654;2023-05-10T00:21:58;1.70;;;1.60;;
76377;SDS011;65200;49.500;8.654;2023-05-10T00:24:24;1.70;;;1.60;;
76377;SDS011;65200;49.500;8.654;2023-05-10T00:26:52;1.65;;;1.35;;
76377;SDS011;65200;49.500;8.654;2023-05-10T00:31:45;2.13;;;1.98;;
76377;SDS011;65200;49.500;8.654;2023-05-10T00:34:11;1.60;;;1.42;;
76377;SDS011;65200;49.500;8.654;2023-05-10T00:36:38;2.67;;;2.47;;
76377;SDS011;65200;49.500;8.654;2023-05-10T00:39:04;1.45;;;1.35;;
76377;SDS011;65200;49.500;8.654;2023-05-10T00:41:31;2.80;;;2.28;;
76377;SDS011;65200;49.500;8.654;2023-05-10T00:43:59;2.03;;;1.65;;
76377;SDS011;65200;49.500;8.654;2023-05-10T00:46:27;1.98;;;1.55;;
76377;SDS011;65200;49.500;8.654;2023-05-10T00:48:53;1.73;;;1.40;;
76377;SDS011;65200;49.500;8.654;2023-05-10T00:51:19;1.58;;;1.48;;
76377;SDS011;65200;49.500;8.654;2023-05-10T00:53:46;2.42;;;1.63;;
76377;SDS011;65200;49.500;8.654;2023-05-10T00:56:13;1.83;;;1.63;;
76377;SDS011;65200;49.500;8.654;2023-05-10T00:58:39;1.33;;;1.23;;
76377;SDS011;65200;49.500;8.654;2023-05-10T01:01:07;1.70;;;1.15;;
76377;SDS011;65200;49.500;8.654;2023-05-10T01:03:34;1.70;;;1.45;;
76377;SDS011;65200;49.500;8.654;2023-05-10T01:08:28;1.10;;;1.00;;
76377;SDS011;65200;49.500;8.654;2023-05-10T01:10:55;1.90;;;1.48;;
76377;SDS011;65200;49.500;8.654;2023-05-10T01:13:25;1.40;;;1.17;;
76377;SDS011;65200;49.500;8.654;2023-05-10T01:15:58;1.40;;;1.25;;
76377;SDS011;65200;49.500;8.654;2023-05-10T01:18:28;1.80;;;1.33;;
76377;SDS011;65200;49.500;8.654;2023-05-10T01:20:59;1.33;;;1.23;;
76377;SDS011;65200;49.500;8.654;2023-05-10T01:23:41;1.80;;;1.67;;
76377;SDS011;65200;49.500;8.654;2023-05-10T01:29:20;1.65;;;1.55;;
76377;SDS011;65200;49.500;8.654;2023-05-10T01:32:17;1.25;;;1.10;;
76377;SDS011;65200;49.500;8.654;2023-05-10T01:34:53;1.77;;;1.67;;
76377;SDS011;65200;49.500;8.654;2023-05-10T01:37:28;1.45;;;1.35;;
76377;SDS011;65200;49.500;8.654;2023-05-10T01:40:00;1.25;;;1.13;;
76377;SDS011;65200;49.500;8.654;2023-05-10T01:45:07;1.33;;;1.23;;
76377;SDS011;65200;49.500;8.654;2023-05-10T01:47:42;1.52;;;1.42;;
76377;SDS011;65200;49.500;8.654;2023-05-10T01:50:19;1.83;;;1.55;;
76377;SDS011;65200;49.500;8.654;2023-05-10T01:52:53;1.23;;;1.13;;
76377;SDS011;65200;49.500;8.654;2023-05-10T01:55:21;2.67;;;2.28;;
76377;SDS011;65200;49.500;8.654;2023-05-10T01:57:52;2.03;;;1.40;;
76377;SDS011;65200;49.500;8.654;2023-05-10T02:00:24;1.17;;;1.08;;
76377;SDS011;65200;49.500;8.654;2023-05-10T02:02:54;1.00;;;0.98;;
76377;SDS011;65200;49.500;8.654;2023-05-10T02:05:22;0.82;;;0.82;;
76377;SDS011;65200;49.500;8.654;2023-05-10T02:07:50;1.63;;;1.35;;
76377;SDS011;65200;49.500;8.654;2023-05-10T02:10:18;1.20;;;1.02;;
76377;SDS011;65200;49.500;8.654;2023-05-10T02:12:46;1.48;;;1.38;;
76377;SDS011;65200;49.500;8.654;2023-05-10T02:15:16;1.30;;;1.15;;
76377;SDS011;65200;49.500;8.654;2023-05-10T02:17:46;1.33;;;1.05;;
76377;SDS011;65200;49.500;8.654;2023-05-10T02:20:14;1.35;;;1.25;;
76377;SDS011;65200;49.500;8.654;2023-05-10T02:22:42;1.95;;;1.38;;
76377;SDS011;65200;49.500;8.654;2023-05-10T02:25:10;1.13;;;1.02;;
76377;SDS011;65200;49.500;8.654;2023-05-10T02:27:40;1.60;;;1.25;;
76377;SDS011;65200;49.500;8.654;2023-05-10T02:30:09;1.42;;;1.33;;
76377;SDS011;65200;49.500;8.654;2023-05-10T02:32:37;3.97;;;1.58;;
76377;SDS011;65200;49.500;8.654;2023-05-10T02:35:05;1.15;;;1.05;;
76377;SDS011;65200;49.500;8.654;2023-05-10T02:37:34;2.45;;;1.75;;
76377;SDS011;65200;49.500;8.654;2023-05-10T02:40:03;1.13;;;1.02;;
76377;SDS011;65200;49.500;8.654;2023-05-10T02:42:31;4.55;;;2.58;;
76377;SDS011;65200;49.500;8.654;2023-05-10T02:45:01;7.15;;;4.22;;
76377;SDS011;65200;49.500;8.654;2023-05-10T02:47:31;4.18;;;3.33;;
76377;SDS011;65200;49.500;8.654;2023-05-10T02:49:58;2.60;;;1.80;;
76377;SDS011;65200;49.500;8.654;2023-05-10T02:52:25;1.73;;;1.63;;
76377;SDS011;65200;49.500;8.654;2023-05-10T02:54:55;2.38;;;2.20;;
76377;SDS011;65200;49.500;8.654;2023-05-10T02:57:27;1.92;;;1.35;;
76377;SDS011;65200;49.500;8.654;2023-05-10T02:59:57;1.67;;;1.30;;
76377;SDS011;65200;49.500;8.654;2023-05-10T03:02:25;1.73;;;1.38;;
76377;SDS011;65200;49.500;8.654;2023-05-10T03:04:51;1.30;;;1.20;;
76377;SDS011;65200;49.500;8.654;2023-05-10T03:07:18;1.20;;;1.10;;
76377;SDS011;65200;49.500;8.654;2023-05-10T03:09:46;1.65;;;1.33;;
76377;SDS011;65200;49.500;8.654;2023-05-10T03:12:15;1.83;;;1.73;;
76377;SDS011;65200;49.500;8.654;2023-05-10T03:14:53;1.85;;;1.52;;
76377;SDS011;65200;49.500;8.654;2023-05-10T03:17:29;3.85;;;3.47;;
76377;SDS011;65200;49.500;8.654;2023-05-10T03:20:02;1.48;;;1.38;;
76377;SDS011;65200;49.500;8.654;2023-05-10T03:22:34;1.83;;;1.55;;
76377;SDS011;65200;49.500;8.654;2023-05-10T03:25:04;2.90;;;1.98;;
76377;SDS011;65200;49.500;8.654;2023-05-10T03:27:34;1.20;;;1.10;;
76377;SDS011;65200;49.500;8.654;2023-05-10T03:30:02;1.67;;;1.58;;
76377;SDS011;65200;49.500;8.654;2023-05-10T03:32:31;1.60;;;1.45;;
76377;SDS011;65200;49.500;8.654;2023-05-10T03:34:59;1.90;;;1.70;;
76377;SDS011;65200;49.500;8.654;2023-05-10T03:37:26;1.77;;;1.65;;
76377;SDS011;65200;49.500;8.654;2023-05-10T03:39:52;1.67;;;1.52;;
76377;SDS011;65200;49.500;8.654;2023-05-10T03:42:19;2.28;;;2.08;;
76377;SDS011;65200;49.500;8.654;2023-05-10T03:44:47;1.70;;;1.58;;
76377;SDS011;65200;49.500;8.654;2023-05-10T03:47:14;2.33;;;1.42;;
76377;SDS011;65200;49.500;8.654;2023-05-10T03:49:40;1.98;;;1.70;;
76377;SDS011;65200;49.500;8.654;2023-05-10T03:52:07;1.92;;;1.73;;
76377;SDS011;65200;49.500;8.654;2023-05-10T03:54:33;2.72;;;2.08;;
76377;SDS011;65200;49.500;8.654;2023-05-10T03:56:59;1.98;;;1.88;;
76377;SDS011;65200;49.500;8.654;2023-05-10T03:59:26;2.03;;;1.83;;
76377;SDS011;65200;49.500;8.654;2023-05-10T04:01:54;1.65;;;1.45;;
76377;SDS011;65200;49.500;8.654;2023-05-10T04:04:20;2.00;;;1.90;;
76377;SDS011;65200;49.500;8.654;2023-05-10T04:06:48;2.47;;;2.28;;
76377;SDS011;65200;49.500;8.654;2023-05-10T04:09:14;2.38;;;1.70;;
76377;SDS011;65200;49.500;8.654;2023-05-10T04:11:41;2.40;;;1.73;;
76377;SDS011;65200;49.500;8.654;2023-05-10T04:14:08;1.98;;;1.63;;
76377;SDS011;65200;49.500;8.654;2023-05-10T04:16:34;1.42;;;1.33;;
76377;SDS011;65200;49.500;8.654;2023-05-10T04:19:02;1.92;;;1.73;;
76377;SDS011;65200;49.500;8.654;2023-05-10T04:23:55;1.80;;;1.50;;
76377;SDS011;65200;49.500;8.654;2023-05-10T04:26:21;2.00;;;1.67;;
76377;SDS011;65200;49.500;8.654;2023-05-10T04:28:48;1.58;;;1.45;;
76377;SDS011;65200;49.500;8.654;2023-05-10T04:31:15;2.38;;;1.75;;
76377;SDS011;65200;49.500;8.654;2023-05-10T04:33:44;2.28;;;1.75;;
76377;SDS011;65200;49.500;8.654;2023-05-10T04:36:12;1.98;;;1.80;;
76377;SDS011;65200;49.500;8.654;2023-05-10T04:38:39;1.90;;;1.80;;
76377;SDS011;65200;49.500;8.654;2023-05-10T04:41:05;2.08;;;1.83;;
76377;SDS011;65200;49.500;8.654;2023-05-10T04:43:33;1.42;;;1.33;;
76377;SDS011;65200;49.500;8.654;2023-05-10T04:45:59;2.22;;;1.90;;
76377;SDS011;65200;49.500;8.654;2023-05-10T04:48:26;2.40;;;1.80;;
76377;SDS011;65200;49.500;8.654;2023-05-10T04:50:52;2.13;;;1.98;;
76377;SDS011;65200;49.500;8.654;2023-05-10T04:53:20;1.63;;;1.45;;
76377;SDS011;65200;49.500;8.654;2023-05-10T04:55:47;1.90;;;1.60;;
76377;SDS011;65200;49.500;8.654;2023-05-10T04:58:13;2.08;;;1.65;;
76377;SDS011;65200;49.500;8.654;2023-05-10T05:00:40;2.78;;;1.85;;
76377;SDS011;65200;49.500;8.654;2023-05-10T05:03:06;2.25;;;1.98;;
76377;SDS011;65200;49.500;8.654;2023-05-10T05:05:33;2.10;;;1.90;;
76377;SDS011;65200;49.500;8.654;2023-05-10T05:07:59;2.22;;;2.03;;
76377;SDS011;65200;49.500;8.654;2023-05-10T05:10:27;2.30;;;1.85;;
76377;SDS011;65200;49.500;8.654;2023-05-10T05:12:53;2.60;;;2.22;;
76377;SDS011;65200;49.500;8.654;2023-05-10T05:15:20;1.98;;;1.65;;
76377;SDS011;65200;49.500;8.654;2023-05-10T05:17:46;2.30;;;1.67;;
76377;SDS011;65200;49.500;8.654;2023-05-10T05:20:13;2.92;;;2.33;;
76377;SDS011;65200;49.500;8.654;2023-05-10T05:22:39;3.45;;;3.17;;
76377;SDS011;65200;49.500;8.654;2023-05-10T05:25:06;3.05;;;2.05;;
76377;SDS011;65200;49.500;8.654;2023-05-10T05:27:34;5.75;;;2.40;;
76377;SDS011;65200;49.500;8.654;2023-05-10T05:30:01;2.38;;;1.73;;
76377;SDS011;65200;49.500;8.654;2023-05-10T05:32:27;2.85;;;2.65;;
76377;SDS011;65200;49.500;8.654;2023-05-10T05:34:53;2.42;;;2.17;;
76377;SDS011;65200;49.500;8.654;2023-05-10T05:37:20;2.13;;;1.80;;
76377;SDS011;65200;49.500;8.654;2023-05-10T05:39:47;2.83;;;2.42;;
76377;SDS011;65200;49.500;8.654;2023-05-10T05:42:14;3.80;;;2.30;;
76377;SDS011;65200;49.500;8.654;2023-05-10T05:47:10;3.05;;;2.40;;
76377;SDS011;65200;49.500;8.654;2023-05-10T05:49:37;3.83;;;2.40;;
76377;SDS011;65200;49.500;8.654;2023-05-10T05:52:03;2.38;;;2.15;;
76377;SDS011;65200;49.500;8.654;2023-05-10T05:54:30;3.03;;;2.22;;
76377;SDS011;65200;49.500;8.654;2023-05-10T05:56:58;2.72;;;2.40;;
76377;SDS011;65200;49.500;8.654;2023-05-10T05:59:25;3.05;;;2.65;;
76377;SDS011;65200;49.500;8.654;2023-05-10T06:01:53;13.60;;;2.67;;
76377;SDS011;65200;49.500;8.654;2023-05-10T06:04:20;3.30;;;3.00;;
76377;SDS011;65200;49.500;8.654;2023-05-10T06:06:46;3.35;;;2.83;;
76377;SDS011;65200;49.500;8.654;2023-05-10T06:09:13;2.85;;;2.47;;
76377;SDS011;65200;49.500;8.654;2023-05-10T06:11:40;2.88;;;2.58;;
76377;SDS011;65200;49.500;8.654;2023-05-10T06:14:06;3.25;;;2.28;;
76377;SDS011;65200;49.500;8.654;2023-05-10T06:16:33;3.63;;;2.33;;
76377;SDS011;65200;49.500;8.654;2023-05-10T06:19:00;2.58;;;2.13;;
76377;SDS011;65200;49.500;8.654;2023-05-10T06:23:53;2.28;;;2.08;;
76377;SDS011;65200;49.500;8.654;2023-05-10T06:26:20;2.60;;;2.40;;
76377;SDS011;65200;49.500;8.654;2023-05-10T06:28:46;5.50;;;2.47;;
76377;SDS011;65200;49.500;8.654;2023-05-10T06:31:13;3.83;;;2.83;;
76377;SDS011;65200;49.500;8.654;2023-05-10T06:33:40;2.53;;;2.33;;
76377;SDS011;65200;49.500;8.654;2023-05-10T06:36:07;3.78;;;2.92;;
76377;SDS011;65200;49.500;8.654;2023-05-10T06:41:00;3.03;;;2.50;;
76377;SDS011;65200;49.500;8.654;2023-05-10T06:43:27;3.10;;;2.80;;
76377;SDS011;65200;49.500;8.654;2023-05-10T06:45:54;3.25;;;2.88;;
76377;SDS011;65200;49.500;8.654;2023-05-10T06:48:20;3.28;;;2.55;;
76377;SDS011;65200;49.500;8.654;2023-05-10T06:50:47;3.00;;;2.67;;
76377;SDS011;65200;49.500;8.654;2023-05-10T06:53:15;4.97;;;3.70;;
76377;SDS011;65200;49.500;8.654;2023-05-10T06:55:41;3.05;;;2.28;;
76377;SDS011;65200;49.500;8.654;2023-05-10T06:58:07;4.40;;;3.20;;
76377;SDS011;65200;49.500;8.654;2023-05-10T07:00:34;3.17;;;2.38;;
76377;SDS011;65200;49.500;8.654;2023-05-10T07:03:04;3.92;;;3.28;;
76377;SDS011;65200;49.500;8.654;2023-05-10T07:05:30;4.13;;;3.08;;
76377;SDS011;65200;49.500;8.654;2023-05-10T07:07:56;4.10;;;3.10;;
76377;SDS011;65200;49.500;8.654;2023-05-10T07:10:25;3.55;;;2.72;;
76377;SDS011;65200;49.500;8.654;2023-05-10T07:12:51;3.67;;;2.60;;
76377;SDS011;65200;49.500;8.654;2023-05-10T07:15:18;4.63;;;3.42;;
76377;SDS011;65200;49.500;8.654;2023-05-10T07:17:44;2.83;;;2.40;;
76377;SDS011;65200;49.500;8.654;2023-05-10T07:20:11;3.92;;;2.60;;
76377;SDS011;65200;49.500;8.654;2023-05-10T07:22:38;2.95;;;2.65;;
76377;SDS011;65200;49.500;8.654;2023-05-10T07:25:05;4.60;;;3.03;;
76377;SDS011;65200;49.500;8.654;2023-05-10T07:27:34;3.80;;;2.38;;
76377;SDS011;65200;49.500;8.654;2023-05-10T07:32:26;11.57;;;3.25;;
76377;SDS011;65200;49.500;8.654;2023-05-10T07:34:53;2.60;;;2.38;;
76377;SDS011;65200;49.500;8.654;2023-05-10T07:37:19;3.78;;;3.08;;
76377;SDS011;65200;49.500;8.654;2023-05-10T07:39:46;4.25;;;2.90;;
76377;SDS011;65200;49.500;8.654;2023-05-10T07:42:12;2.90;;;2.53;;
76377;SDS011;65200;49.500;8.654;2023-05-10T07:44:40;2.50;;;1.90;;
76377;SDS011;65200;49.500;8.654;2023-05-10T07:49:33;3.55;;;2.65;;
76377;SDS011;65200;49.500;8.654;2023-05-10T07:52:00;2.45;;;2.25;;
76377;SDS011;65200;49.500;8.654;2023-05-10T07:54:28;4.18;;;2.05;;
76377;SDS011;65200;49.500;8.654;2023-05-10T07:56:55;3.65;;;2.58;;
76377;SDS011;65200;49.500;8.654;2023-05-10T07:59:21;2.70;;;2.28;;
76377;SDS011;65200;49.500;8.654;2023-05-10T08:01:49;2.53;;;2.20;;
76377;SDS011;65200;49.500;8.654;2023-05-10T08:06:43;2.45;;;2.10;;
76377;SDS011;65200;49.500;8.654;2023-05-10T08:09:09;2.63;;;2.28;;
76377;SDS011;65200;49.500;8.654;2023-05-10T08:11:36;2.85;;;2.60;;
76377;SDS011;65200;49.500;8.654;2023-05-10T08:14:02;2.42;;;1.75;;
76377;SDS011;65200;49.500;8.654;2023-05-10T08:16:29;2.08;;;1.85;;
76377;SDS011;65200;49.500;8.654;2023-05-10T08:18:56;3.30;;;2.45;;
76377;SDS011;65200;49.500;8.654;2023-05-10T08:23:49;2.10;;;1.83;;
76377;SDS011;65200;49.500;8.654;2023-05-10T08:26:15;2.90;;;2.28;;
76377;SDS011;65200;49.500;8.654;2023-05-10T08:28:42;3.00;;;1.95;;
76377;SDS011;65200;49.500;8.654;2023-05-10T08:31:08;2.00;;;1.67;;
76377;SDS011;65200;49.500;8.654;2023-05-10T08:33:35;3.28;;;1.92;;
76377;SDS011;65200;49.500;8.654;2023-05-10T08:36:03;3.28;;;2.03;;
76377;SDS011;65200;49.500;8.654;2023-05-10T08:38:29;2.33;;;1.90;;
76377;SDS011;65200;49.500;8.654;2023-05-10T08:40:56;5.35;;;1.52;;
76377;SDS011;65200;49.500;8.654;2023-05-10T08:43:24;1.73;;;1.63;;
76377;SDS011;65200;49.500;8.654;2023-05-10T08:45:53;2.30;;;1.92;;
76377;SDS011;65200;49.500;8.654;2023-05-10T08:48:20;1.55;;;1.45;;
76377;SDS011;65200;49.500;8.654;2023-05-10T08:50:49;1.63;;;1.45;;
76377;SDS011;65200;49.500;8.654;2023-05-10T08:53:20;2.17;;;1.83;;
76377;SDS011;65200;49.500;8.654;2023-05-10T08:55:49;2.38;;;2.00;;
76377;SDS011;65200;49.500;8.654;2023-05-10T08:58:15;3.83;;;2.30;;
76377;SDS011;65200;49.500;8.654;2023-05-10T09:00:44;1.83;;;1.73;;
76377;SDS011;65200;49.500;8.654;2023-05-10T09:03:11;2.75;;;1.73;;
76377;SDS011;65200;49.500;8.654;2023-05-10T09:05:38;5.13;;;1.83;;
76377;SDS011;65200;49.500;8.654;2023-05-10T09:10:35;1.60;;;1.33;;
76377;SDS011;65200;49.500;8.654;2023-05-10T09:13:03;2.22;;;1.92;;
76377;SDS011;65200;49.500;8.654;2023-05-10T09:15:30;1.73;;;1.30;;
76377;SDS011;65200;49.500;8.654;2023-05-10T09:17:57;1.90;;;1.65;;
76377;SDS011;65200;49.500;8.654;2023-05-10T09:20:26;1.58;;;1.45;;
76377;SDS011;65200;49.500;8.654;2023-05-10T09:22:53;2.33;;;2.10;;
76377;SDS011;65200;49.500;8.654;2023-05-10T09:25:19;1.55;;;1.40;;
76377;SDS011;65200;49.500;8.654;2023-05-10T09:27:48;2.03;;;1.85;;
76377;SDS011;65200;49.500;8.654;2023-05-10T09:30:15;3.83;;;1.75;;
76377;SDS011;65200;49.500;8.654;2023-05-10T09:32:43;1.73;;;1.45;;
76377;SDS011;65200;49.500;8.654;2023-05-10T09:35:11;2.33;;;1.85;;
76377;SDS011;65200;49.500;8.654;2023-05-10T09:37:39;2.10;;;1.70;;
76377;SDS011;65200;49.500;8.654;2023-05-10T09:40:07;1.48;;;1.38;;
76377;SDS011;65200;49.500;8.654;2023-05-10T09:42:38;2.00;;;1.80;;
76377;SDS011;65200;49.500;8.654;2023-05-10T09:45:06;2.50;;;1.98;;
76377;SDS011;65200;49.500;8.654;2023-05-10T09:47:33;1.38;;;1.27;;
76377;SDS011;65200;49.500;8.654;2023-05-10T09:50:01;2.13;;;1.90;;
76377;SDS011;65200;49.500;8.654;2023-05-10T09:52:29;1.35;;;1.25;;
76377;SDS011;65200;49.500;8.654;2023-05-10T09:54:56;1.63;;;1.52;;
76377;SDS011;65200;49.500;8.654;2023-05-10T09:57:23;1.92;;;1.70;;
76377;SDS011;65200;49.500;8.654;2023-05-10T09:59:50;1.23;;;1.13;;
76377;SDS011;65200;49.500;8.654;2023-05-10T10:02:20;2.30;;;1.38;;
76377;SDS011;65200;49.500;8.654;2023-05-10T10:04:48;1.80;;;1.70;;
76377;SDS011;65200;49.500;8.654;2023-05-10T10:07:17;2.33;;;1.75;;
76377;SDS011;65200;49.500;8.654;2023-05-10T10:09:49;1.98;;;1.73;;
76377;SDS011;65200;49.500;8.654;2023-05-10T10:12:16;1.48;;;1.38;;
76377;SDS011;65200;49.500;8.654;2023-05-10T10:14:44;2.85;;;2.65;;
76377;SDS011;65200;49.500;8.654;2023-05-10T10:19:41;1.17;;;1.08;;
76377;SDS011;65200;49.500;8.654;2023-05-10T10:22:07;1.13;;;1.02;;
76377;SDS011;65200;49.500;8.654;2023-05-10T10:24:35;1.88;;;1.67;;
76377;SDS011;65200;49.500;8.654;2023-05-10T10:27:04;1.20;;;1.10;;
76377;SDS011;65200;49.500;8.654;2023-05-10T10:29:39;1.38;;;1.25;;
76377;SDS011;65200;49.500;8.654;2023-05-10T10:32:18;2.28;;;2.08;;
76377;SDS011;65200;49.500;8.654;2023-05-10T10:34:52;1.38;;;1.25;;
76377;SDS011;65200;49.500;8.654;2023-05-10T10:37:20;1.52;;;1.35;;
76377;SDS011;65200;49.500;8.654;2023-05-10T10:39:47;1.52;;;1.42;;
76377;SDS011;65200;49.500;8.654;2023-05-10T10:42:14;6.30;;;1.40;;
76377;SDS011;65200;49.500;8.654;2023-05-10T10:45:13;3.92;;;1.90;;
76377;SDS011;65200;49.500;8.654;2023-05-10T10:47:39;1.50;;;1.40;;
76377;SDS011;65200;49.500;8.654;2023-05-10T10:50:09;1.92;;;1.80;;
76377;SDS011;65200;49.500;8.654;2023-05-10T10:52:38;2.25;;;2.05;;
76377;SDS011;65200;49.500;8.654;2023-05-10T10:55:05;2.25;;;1.80;;
76377;SDS011;65200;49.500;8.654;2023-05-10T10:57:42;2.25;;;1.80;;
76377;SDS011;65200;49.500;8.654;2023-05-10T11:00:20;1.88;;;1.75;;
76377;SDS011;65200;49.500;8.654;2023-05-10T11:02:52;1.98;;;1.60;;
76377;SDS011;65200;49.500;8.654;2023-05-10T11:05:24;2.10;;;1.90;;
76377;SDS011;65200;49.500;8.654;2023-05-10T11:08:06;2.50;;;1.45;;
76377;SDS011;65200;49.500;8.654;2023-05-10T11:10:35;3.22;;;2.40;;
76377;SDS011;65200;49.500;8.654;2023-05-10T11:13:03;2.55;;;2.05;;
76377;SDS011;65200;49.500;8.654;2023-05-10T11:15:32;2.05;;;1.85;;
76377;SDS011;65200;49.500;8.654;2023-05-10T11:18:00;2.13;;;1.67;;
76377;SDS011;65200;49.500;8.654;2023-05-10T11:20:51;1.70;;;1.60;;
76377;SDS011;65200;49.500;8.654;2023-05-10T11:23:18;2.30;;;2.10;;
76377;SDS011;65200;49.500;8.654;2023-05-10T11:28:13;2.53;;;1.83;;
76377;SDS011;65200;49.500;8.654;2023-05-10T11:30:41;2.00;;;1.73;;
76377;SDS011;65200;49.500;8.654;2023-05-10T11:33:09;1.60;;;1.42;;
76377;SDS011;65200;49.500;8.654;2023-05-10T11:35:41;1.38;;;1.23;;
76377;SDS011;65200;49.500;8.654;2023-05-10T11:38:10;2.03;;;1.67;;
76377;SDS011;65200;49.500;8.654;2023-05-10T11:40:38;5.97;;;1.83;;
76377;SDS011;65200;49.500;8.654;2023-05-10T11:43:05;1.42;;;1.17;;
76377;SDS011;65200;49.500;8.654;2023-05-10T11:45:32;2.10;;;1.65;;
76377;SDS011;65200;49.500;8.654;2023-05-10T11:47:59;2.25;;;1.75;;
76377;SDS011;65200;49.500;8.654;2023-05-10T11:53:03;2.35;;;1.73;;
76377;SDS011;65200;49.500;8.654;2023-05-10T11:58:00;1.48;;;1.25;;
76377;SDS011;65200;49.500;8.654;2023-05-10T12:00:28;2.70;;;1.50;;
76377;SDS011;65200;49.500;8.654;2023-05-10T12:02:56;2.38;;;2.17;;
76377;SDS011;65200;49.500;8.654;2023-05-10T12:05:23;1.60;;;1.50;;
76377;SDS011;65200;49.500;8.654;2023-05-10T12:07:50;2.28;;;1.52;;
76377;SDS011;65200;49.500;8.654;2023-05-10T12:10:17;1.77;;;1.55;;
76377;SDS011;65200;49.500;8.654;2023-05-10T12:12:52;1.70;;;1.60;;
76377;SDS011;65200;49.500;8.654;2023-05-10T12:15:20;2.05;;;1.85;;
76377;SDS011;65200;49.500;8.654;2023-05-10T12:17:48;2.58;;;1.52;;
76377;SDS011;65200;49.500;8.654;2023-05-10T12:20:18;2.05;;;1.90;;
76377;SDS011;65200;49.500;8.654;2023-05-10T12:22:47;1.40;;;1.23;;
76377;SDS011;65200;49.500;8.654;2023-05-10T12:25:16;2.10;;;1.80;;
76377;SDS011;65200;49.500;8.654;2023-05-10T12:27:49;1.65;;;1.33;;
76377;SDS011;65200;49.500;8.654;2023-05-10T12:30:22;1.13;;;1.02;;
76377;SDS011;65200;49.500;8.654;2023-05-10T12:32:49;1.40;;;1.30;;
76377;SDS011;65200;49.500;8.654;2023-05-10T12:35:16;1.20;;;1.10;;
76377;SDS011;65200;49.500;8.654;2023-05-10T12:37:47;1.52;;;1.40;;
76377;SDS011;65200;49.500;8.654;2023-05-10T12:40:13;1.63;;;1.45;;
76377;SDS011;65200;49.500;8.654;2023-05-10T12:42:40;1.95;;;1.65;;
76377;SDS011;65200;49.500;8.654;2023-05-10T12:45:09;1.45;;;1.23;;
76377;SDS011;65200;49.500;8.654;2023-05-10T12:47:38;1.70;;;1.60;;
76377;SDS011;65200;49.500;8.654;2023-05-10T12:50:05;2.50;;;1.38;;
76377;SDS011;65200;49.500;8.654;2023-05-10T12:52:32;1.52;;;1.42;;
76377;SDS011;65200;49.500;8.654;2023-05-10T12:54:59;2.05;;;1.85;;
76377;SDS011;65200;49.500;8.654;2023-05-10T12:57:28;1.63;;;1.42;;
76377;SDS011;65200;49.500;8.654;2023-05-10T12:59:55;2.63;;;1.48;;
76377;SDS011;65200;49.500;8.654;2023-05-10T13:02:22;3.13;;;1.50;;
76377;SDS011;65200;49.500;8.654;2023-05-10T13:04:50;4.55;;;2.13;;
76377;SDS011;65200;49.500;8.654;2023-05-10T13:07:17;1.75;;;1.65;;
76377;SDS011;65200;49.500;8.654;2023-05-10T13:09:43;2.80;;;1.42;;
76377;SDS011;65200;49.500;8.654;2023-05-10T13:12:10;1.92;;;1.67;;
76377;SDS011;65200;49.500;8.654;2023-05-10T13:14:36;1.40;;;1.25;;
76377;SDS011;65200;49.500;8.654;2023-05-10T13:17:05;2.83;;;1.52;;
76377;SDS011;65200;49.500;8.654;2023-05-10T13:19:32;1.63;;;1.45;;
76377;SDS011;65200;49.500;8.654;2023-05-10T13:22:00;2.03;;;1.35;;
76377;SDS011;65200;49.500;8.654;2023-05-10T13:24:27;1.48;;;1.30;;
76377;SDS011;65200;49.500;8.654;2023-05-10T13:26:53;2.00;;;1.23;;
76377;SDS011;65200;49.500;8.654;2023-05-10T13:29:20;1.83;;;1.63;;
76377;SDS011;65200;49.500;8.654;2023-05-10T13:31:47;1.85;;;1.30;;
76377;SDS011;65200;49.500;8.654;2023-05-10T13:34:14;1.83;;;1.73;;
76377;SDS011;65200;49.500;8.654;2023-05-10T13:36:40;1.95;;;1.60;;
76377;SDS011;65200;49.500;8.654;2023-05-10T13:39:08;1.10;;;1.00;;
76377;SDS011;65200;49.500;8.654;2023-05-10T13:41:35;2.55;;;1.52;;
76377;SDS011;65200;49.500;8.654;2023-05-10T13:44:02;1.25;;;1.08;;
76377;SDS011;65200;49.500;8.654;2023-05-10T13:46:28;1.85;;;1.58;;
76377;SDS011;65200;49.500;8.654;2023-05-10T13:48:55;1.25;;;1.15;;
76377;SDS011;65200;49.500;8.654;2023-05-10T13:51:22;1.38;;;1.02;;
76377;SDS011;65200;49.500;8.654;2023-05-10T13:53:48;1.73;;;1.35;;
76377;SDS011;65200;49.500;8.654;2023-05-10T13:56:17;1.25;;;1.15;;
76377;SDS011;65200;49.500;8.654;2023-05-10T13:58:44;1.65;;;1.55;;
76377;SDS011;65200;49.500;8.654;2023-05-10T14:03:38;1.40;;;1.30;;
76377;SDS011;65200;49.500;8.654;2023-05-10T14:06:04;1.80;;;1.67;;
76377;SDS011;65200;49.500;8.654;2023-05-10T14:08:32;1.35;;;1.13;;
76377;SDS011;65200;49.500;8.654;2023-05-10T14:10:59;2.25;;;1.38;;
76377;SDS011;65200;49.500;8.654;2023-05-10T14:13:27;1.50;;;0.98;;
76377;SDS011;65200;49.500;8.654;2023-05-10T14:15:54;1.42;;;1.25;;
76377;SDS011;65200;49.500;8.654;2023-05-10T14:18:20;1.95;;;1.15;;
76377;SDS011;65200;49.500;8.654;2023-05-10T14:20:47;1.15;;;1.02;;
76377;SDS011;65200;49.500;8.654;2023-05-10T14:23:13;1.23;;;1.13;;
76377;SDS011;65200;49.500;8.654;2023-05-10T14:25:40;1.70;;;1.55;;
76377;SDS011;65200;49.500;8.654;2023-05-10T14:28:06;1.83;;;1.70;;
76377;SDS011;65200;49.500;8.654;2023-05-10T14:30:34;1.85;;;1.33;;
76377;SDS011;65200;49.500;8.654;2023-05-10T14:33:01;1.48;;;1.08;;
76377;SDS011;65200;49.500;8.654;2023-05-10T14:35:28;1.10;;;1.00;;
76377;SDS011;65200;49.500;8.654;2023-05-10T14:37:55;2.00;;;1.52;;
76377;SDS011;65200;49.500;8.654;2023-05-10T14:40:24;1.33;;;1.23;;
76377;SDS011;65200;49.500;8.654;2023-05-10T14:42:51;1.55;;;1.45;;
76377;SDS011;65200;49.500;8.654;2023-05-10T14:45:18;1.60;;;1.23;;
76377;SDS011;65200;49.500;8.654;2023-05-10T14:47:46;3.28;;;1.83;;
76377;SDS011;65200;49.500;8.654;2023-05-10T14:50:14;1.52;;;1.42;;
76377;SDS011;65200;49.500;8.654;2023-05-10T14:52:41;1.80;;;1.30;;
76377;SDS011;65200;49.500;8.654;2023-05-10T14:55:08;1.13;;;1.02;;
76377;SDS011;65200;49.500;8.654;2023-05-10T14:57:35;1.73;;;1.27;;
76377;SDS011;65200;49.500;8.654;2023-05-10T15:00:01;1.08;;;0.98;;
76377;SDS011;65200;49.500;8.654;2023-05-10T15:02:28;1.27;;;1.17;;
76377;SDS011;65200;49.500;8.654;2023-05-10T15:04:57;2.10;;;1.90;;
76377;SDS011;65200;49.500;8.654;2023-05-10T15:07:23;1.65;;;1.15;;
76377;SDS011;65200;49.500;8.654;2023-05-10T15:09:53;1.23;;;1.13;;
76377;SDS011;65200;49.500;8.654;2023-05-10T15:12:20;1.27;;;1.17;;
76377;SDS011;65200;49.500;8.654;2023-05-10T15:14:47;1.35;;;1.25;;
76377;SDS011;65200;49.500;8.654;2023-05-10T15:17:13;1.08;;;0.98;;
76377;SDS011;65200;49.500;8.654;2023-05-10T15:19:41;1.50;;;1.40;;
76377;SDS011;65200;49.500;8.654;2023-05-10T15:22:09;1.35;;;1.25;;
76377;SDS011;65200;49.500;8.654;2023-05-10T15:24:36;1.25;;;1.15;;
76377;SDS011;65200;49.500;8.654;2023-05-10T15:27:02;1.70;;;1.50;;
76377;SDS011;65200;49.500;8.654;2023-05-10T15:29:29;1.13;;;1.02;;
76377;SDS011;65200;49.500;8.654;2023-05-10T15:31:56;1.83;;;1.50;;
76377;SDS011;65200;49.500;8.654;2023-05-10T15:34:23;1.45;;;1.08;;
76377;SDS011;65200;49.500;8.654;2023-05-10T15:36:49;1.85;;;1.75;;
76377;SDS011;65200;49.500;8.654;2023-05-10T15:39:17;1.05;;;1.02;;